createdAt,value
2022-10-02T00:05:30.165Z,102495.22
2022-10-02T00:11:06.007Z,102497.97
2022-10-02T00:16:35.253Z,102499.09
2022-10-02T00:22:14.995Z,102498.81
2022-10-02T00:28:17.379Z,102492.47
2022-10-02T00:33:54.392Z,102497.41
2022-10-02T00:45:56.235Z,102502.94
2022-10-02T00:51:13.952Z,102499.06
2022-10-02T00:56:53.760Z,102496.88
2022-10-02T01:02:38.159Z,102503.47
2022-10-02T01:08:00.256Z,102485.00
2022-10-02T01:13:18.697Z,102491.88
2022-10-02T01:23:22.033Z,102504.56
2022-10-02T01:28:29.534Z,102500.13
2022-10-02T01:38:58.072Z,102492.13
2022-10-02T01:44:08.369Z,102495.69
2022-10-02T01:49:45.337Z,102499.28
2022-10-02T01:55:07.878Z,102501.19
2022-10-02T02:00:29.487Z,102488.22
2022-10-02T02:06:06.696Z,102492.63
2022-10-02T02:11:24.028Z,102479.66
2022-10-02T02:16:39.740Z,102487.38
2022-10-02T02:21:58.156Z,102480.69
2022-10-02T02:27:05.746Z,102487.03
2022-10-02T02:32:16.288Z,102487.56
2022-10-02T02:37:24.684Z,102481.50
2022-10-02T02:42:34.599Z,102481.22
2022-10-02T02:47:52.039Z,102470.44
2022-10-02T02:53:30.221Z,102472.91
2022-10-02T02:58:39.987Z,102463.78
2022-10-02T03:08:53.639Z,102466.25
2022-10-02T03:14:11.285Z,102463.19
2022-10-02T03:19:27.693Z,102448.03
2022-10-02T03:24:37.398Z,102457.41
2022-10-02T03:29:57.245Z,102450.50
2022-10-02T03:35:01.236Z,102456.84
2022-10-02T03:40:09.184Z,102450.22
2022-10-02T03:45:23.083Z,102449.34
2022-10-02T03:50:36.369Z,102456.22
2022-10-02T03:55:41.483Z,102444.09
2022-10-02T04:01:07.326Z,102444.06
2022-10-02T04:06:19.574Z,102441.84
2022-10-02T04:11:37.206Z,102441.56
2022-10-02T04:16:44.181Z,102431.91
2022-10-02T04:21:57.818Z,102431.06
2022-10-02T04:27:21.706Z,102439.59
2022-10-02T04:32:30.292Z,102437.38
2022-10-02T04:38:02.788Z,102421.97
2022-10-02T04:43:16.994Z,102429.13
2022-10-02T04:48:59.288Z,102430.22
2022-10-02T04:54:36.745Z,102424.72
2022-10-02T04:59:50.973Z,102432.97
2022-10-02T05:05:05.167Z,102421.97
2022-10-02T05:10:24.290Z,102426.66
2022-10-02T05:15:55.184Z,102429.66
2022-10-02T05:21:15.746Z,102422.50
2022-10-02T05:26:31.593Z,102433.50
2022-10-02T05:31:47.874Z,102425.25
2022-10-02T05:37:11.177Z,102430.50
2022-10-02T05:42:20.989Z,102430.78
2022-10-02T05:47:28.682Z,102424.75
2022-10-02T05:52:40.607Z,102442.66
2022-10-02T05:57:48.643Z,102428.06
2022-10-02T06:03:28.161Z,102420.34
2022-10-02T06:08:52.636Z,102426.69
2022-10-02T06:14:21.837Z,102428.59
2022-10-02T06:19:29.352Z,102437.66
2022-10-02T06:24:37.903Z,102432.91
2022-10-02T06:29:45.964Z,102426.34
2022-10-02T06:34:50.385Z,102432.97
2022-10-02T06:40:25.738Z,102439.91
2022-10-02T06:45:58.401Z,102435.81
2022-10-02T06:51:18.494Z,102443.50
2022-10-02T06:56:47.320Z,102437.28
2022-10-02T07:02:07.504Z,102446.34
2022-10-02T07:07:50.457Z,102453.44
2022-10-02T07:13:26.066Z,102447.88
2022-10-02T07:18:44.728Z,102466.34
2022-10-02T07:24:11.246Z,102483.84
2022-10-02T07:29:38.498Z,102497.91
2022-10-02T07:35:06.505Z,102497.34
2022-10-02T07:40:35.529Z,102490.03
2022-10-02T07:46:03.859Z,102490.84
2022-10-02T07:51:47.829Z,102502.75
2022-10-02T07:56:52.768Z,102500.50
2022-10-02T08:01:56.133Z,102504.13
2022-10-02T08:07:01.115Z,102489.59
2022-10-02T08:12:16.545Z,102486.81
2022-10-02T08:17:39.834Z,102497.91
2022-10-02T08:22:48.457Z,102486.84
2022-10-02T08:27:54.377Z,102507.75
2022-10-02T08:32:56.896Z,102497.44
2022-10-02T08:38:12.867Z,102490.56
2022-10-02T08:43:50.679Z,102488.53
2022-10-02T08:48:58.539Z,102490.22
2022-10-02T08:54:22.455Z,102491.09
2022-10-02T08:59:26.089Z,102476.19
2022-10-02T09:04:46.586Z,102478.69
2022-10-02T09:10:26.358Z,102474.72
2022-10-02T09:15:47.886Z,102463.41
2022-10-02T09:21:01.961Z,102466.84
2022-10-02T09:26:26.432Z,102457.66
2022-10-02T09:31:40.444Z,102459.63
2022-10-02T09:37:08.753Z,102451.06
2022-10-02T09:42:29.020Z,102436.31
2022-10-02T09:48:08.790Z,102434.31
2022-10-02T09:53:22.878Z,102438.25
2022-10-02T09:59:03.239Z,102423.97
2022-10-02T10:05:04.488Z,102423.16
2022-10-02T10:10:21.734Z,102408.53
2022-10-02T10:15:48.206Z,102408.69
2022-10-02T10:21:10.423Z,102395.06
2022-10-02T10:26:37.151Z,102390.63
2022-10-02T10:31:55.068Z,102388.97
2022-10-02T10:37:35.151Z,102391.91
2022-10-02T10:43:06.882Z,102369.06
2022-10-02T10:48:33.998Z,102380.88
2022-10-02T10:54:16.275Z,102381.22
2022-10-02T10:59:43.328Z,102353.56
2022-10-02T11:05:10.128Z,102360.97
2022-10-02T11:10:45.460Z,102357.38
2022-10-02T11:16:13.338Z,102356.53
2022-10-02T11:21:21.053Z,102359.34
2022-10-02T11:26:52.323Z,102346.00
2022-10-02T11:32:02.954Z,102345.53
2022-10-02T11:37:37.859Z,102353.47
2022-10-02T11:42:39.704Z,102346.41
2022-10-02T11:47:58.097Z,102337.72
2022-10-02T11:53:24.546Z,102331.78
2022-10-02T11:58:54.395Z,102332.16
2022-10-02T12:04:19.384Z,102317.06
2022-10-02T12:09:56.519Z,102317.69
2022-10-02T12:15:04.392Z,102285.16
2022-10-02T12:20:40.111Z,102289.88
2022-10-02T12:26:32.610Z,102289.41
2022-10-02T12:32:03.796Z,102284.19
2022-10-02T12:37:12.987Z,102268.22
2022-10-02T12:42:26.806Z,102265.06
2022-10-02T12:47:52.229Z,102256.53
2022-10-02T12:53:22.434Z,102254.25
2022-10-02T12:58:33.993Z,102244.22
2022-10-02T13:03:47.639Z,102245.19
2022-10-02T13:09:15.984Z,102233.47
2022-10-02T13:14:29.740Z,102240.03
2022-10-02T13:20:07.538Z,102231.47
2022-10-02T13:25:48.044Z,102216.66
2022-10-02T13:30:58.167Z,102206.63
2022-10-02T13:36:09.061Z,102193.44
2022-10-02T13:41:17.045Z,102189.66
2022-10-02T13:46:42.712Z,102176.41
2022-10-02T13:52:10.635Z,102178.91
2022-10-02T13:57:37.892Z,102177.19
2022-10-02T14:03:04.000Z,102180.69
2022-10-02T14:08:44.204Z,102172.06
2022-10-02T14:14:12.879Z,102164.84
2022-10-02T14:19:33.799Z,102160.13
2022-10-02T14:24:57.133Z,102171.97
2022-10-02T14:30:13.641Z,102146.44
2022-10-02T14:35:34.290Z,102153.34
2022-10-02T14:40:52.789Z,102135.28
2022-10-02T14:46:20.069Z,102124.31
2022-10-02T14:51:47.880Z,102135.13
2022-10-02T14:57:01.503Z,102119.72
2022-10-02T15:02:09.199Z,102109.72
2022-10-02T15:07:13.921Z,102111.88
2022-10-02T15:12:21.245Z,102108.13
2022-10-02T15:17:56.578Z,102105.66
2022-10-02T15:23:12.689Z,102102.88
2022-10-02T15:28:47.174Z,102090.06
2022-10-02T15:33:50.027Z,102087.94
2022-10-02T15:39:09.948Z,102082.53
2022-10-02T15:44:32.085Z,102095.97
2022-10-02T15:49:56.909Z,102075.00
2022-10-02T15:55:50.835Z,102081.06
2022-10-02T16:01:01.784Z,102090.53
2022-10-02T16:06:30.138Z,102079.88
2022-10-02T16:11:57.742Z,102081.16
2022-10-02T16:17:13.172Z,102080.16
2022-10-02T16:22:38.612Z,102073.59
2022-10-02T16:28:09.302Z,102080.81
2022-10-02T16:33:20.096Z,102088.19
2022-10-02T16:38:40.381Z,102080.13
2022-10-02T16:44:00.504Z,102097.72
2022-10-02T16:49:36.542Z,102087.50
2022-10-02T16:54:52.193Z,102092.72
2022-10-02T17:00:16.201Z,102093.38
2022-10-02T17:05:31.862Z,102089.41
2022-10-02T17:10:47.541Z,102095.88
2022-10-02T17:15:59.274Z,102109.88
2022-10-02T17:21:22.525Z,102096.88
2022-10-02T17:26:38.016Z,102104.94
2022-10-02T17:31:50.733Z,102109.41
2022-10-02T17:37:04.653Z,102109.84
2022-10-02T17:42:24.825Z,102103.91
2022-10-02T17:47:52.494Z,102101.88
2022-10-02T17:53:42.455Z,102108.56
2022-10-02T17:59:07.446Z,102104.78
2022-10-02T18:04:24.210Z,102102.13
2022-10-02T18:09:47.768Z,102100.47
2022-10-02T18:15:08.434Z,102103.38
2022-10-02T18:20:29.164Z,102093.72
2022-10-02T18:25:39.843Z,102097.41
2022-10-02T18:30:57.783Z,102105.00
2022-10-02T18:36:21.904Z,102109.75
2022-10-02T18:41:54.612Z,102102.56
2022-10-02T18:47:24.163Z,102112.00
2022-10-02T18:52:58.894Z,102109.22
2022-10-02T18:58:22.536Z,102104.81
2022-10-02T19:03:45.658Z,102107.59
2022-10-02T19:09:06.924Z,102115.41
2022-10-02T19:14:22.191Z,102118.81
2022-10-02T19:19:25.232Z,102119.13
2022-10-02T19:24:34.369Z,102129.91
2022-10-02T19:29:41.648Z,102132.16
2022-10-02T19:34:44.164Z,102139.38
2022-10-02T19:39:55.897Z,102149.03
2022-10-02T19:45:14.121Z,102155.50
2022-10-02T19:50:23.450Z,102158.91
2022-10-02T19:55:29.619Z,102157.56
2022-10-02T20:00:35.383Z,102160.16
2022-10-02T20:05:42.085Z,102159.00
2022-10-02T20:10:54.249Z,102167.97
2022-10-02T20:16:18.728Z,102167.41
2022-10-02T20:21:40.403Z,102166.91
2022-10-02T20:26:44.984Z,102175.03
2022-10-02T20:32:22.228Z,102178.41
2022-10-02T20:37:31.276Z,102180.97
2022-10-02T20:42:46.347Z,102181.59
2022-10-02T20:48:03.523Z,102173.06
2022-10-02T20:53:27.100Z,102163.41
2022-10-02T20:58:50.574Z,102160.72
2022-10-02T21:04:29.973Z,102167.50
2022-10-02T21:09:58.610Z,102165.66
2022-10-02T21:15:18.841Z,102169.34
2022-10-02T21:20:33.274Z,102160.50
2022-10-02T21:25:55.199Z,102159.47
2022-10-02T21:31:12.646Z,102149.56
2022-10-02T21:36:33.785Z,102145.75
2022-10-02T21:41:47.157Z,102152.22
2022-10-02T21:47:04.561Z,102150.38
2022-10-02T21:52:44.103Z,102146.56
2022-10-02T21:58:04.219Z,102149.72
2022-10-02T22:03:45.584Z,102147.03
2022-10-02T22:09:11.467Z,102157.91
2022-10-02T22:14:23.522Z,102147.72
2022-10-02T22:19:50.182Z,102149.44
2022-10-02T22:25:17.706Z,102157.00
2022-10-02T22:30:28.524Z,102149.91
2022-10-02T22:35:42.338Z,102151.63
2022-10-02T22:40:59.118Z,102150.59
2022-10-02T22:46:26.932Z,102148.22
2022-10-02T22:51:49.568Z,102139.16
2022-10-02T22:57:07.240Z,102137.56
2022-10-02T23:02:22.051Z,102140.41
2022-10-02T23:07:30.333Z,102146.31
2022-10-02T23:12:43.952Z,102138.09
2022-10-02T23:18:14.895Z,102149.22
2022-10-02T23:23:23.230Z,102150.72
2022-10-02T23:28:35.191Z,102145.56
2022-10-02T23:33:53.637Z,102156.41
2022-10-02T23:39:12.522Z,102153.06
2022-10-02T23:44:24.582Z,102143.13
2022-10-02T23:49:49.421Z,102143.66
2022-10-02T23:54:51.223Z,102144.50
